sensor_id;sensor_type;location;lat;lon;timestamp;temperature;humidity
5176;DHT22;2607;50.934;6.934;2023-06-19T00:00:07;23.40;98.60
5176;DHT22;2607;50.934;6.934;2023-06-19T00:02:41;23.40;98.70
5176;DHT22;2607;50.934;6.934;2023-06-19T00:05:08;23.30;98.80
5176;DHT22;2607;50.934;6.934;2023-06-19T00:07:35;23.30;98.90
5176;DHT22;2607;50.934;6.934;2023-06-19T00:10:01;23.30;99.10
5176;DHT22;2607;50.934;6.934;2023-06-19T00:12:26;23.30;99.10
5176;DHT22;2607;50.934;6.934;2023-06-19T00:14:52;23.30;99.20
5176;DHT22;2607;50.934;6.934;2023-06-19T00:17:17;23.20;99.20
5176;DHT22;2607;50.934;6.934;2023-06-19T00:19:43;23.20;99.20
5176;DHT22;2607;50.934;6.934;2023-06-19T00:22:09;23.20;99.40
5176;DHT22;2607;50.934;6.934;2023-06-19T00:24:35;23.20;99.30
5176;DHT22;2607;50.934;6.934;2023-06-19T00:27:00;23.20;99.10
5176;DHT22;2607;50.934;6.934;2023-06-19T00:29:28;23.20;99.30
5176;DHT22;2607;50.934;6.934;2023-06-19T00:31:53;23.20;99.30
5176;DHT22;2607;50.934;6.934;2023-06-19T00:34:19;23.20;99.20
5176;DHT22;2607;50.934;6.934;2023-06-19T00:36:44;23.20;99.40
5176;DHT22;2607;50.934;6.934;2023-06-19T00:39:10;23.20;99.30
5176;DHT22;2607;50.934;6.934;2023-06-19T00:41:37;23.10;99.20
5176;DHT22;2607;50.934;6.934;2023-06-19T00:44:03;23.10;99.20
5176;DHT22;2607;50.934;6.934;2023-06-19T00:46:28;23.10;99.30
5176;DHT22;2607;50.934;6.934;2023-06-19T00:48:54;23.00;99.40
5176;DHT22;2607;50.934;6.934;2023-06-19T00:51:20;23.00;99.50
5176;DHT22;2607;50.934;6.934;2023-06-19T00:53:46;23.00;99.60
5176;DHT22;2607;50.934;6.934;2023-06-19T00:56:12;23.00;99.70
5176;DHT22;2607;50.934;6.934;2023-06-19T00:58:38;23.00;99.70
5176;DHT22;2607;50.934;6.934;2023-06-19T01:01:04;23.00;99.80
5176;DHT22;2607;50.934;6.934;2023-06-19T01:03:30;23.00;99.80
5176;DHT22;2607;50.934;6.934;2023-06-19T01:05:57;23.00;99.80
5176;DHT22;2607;50.934;6.934;2023-06-19T01:08:58;23.00;99.80
5176;DHT22;2607;50.934;6.934;2023-06-19T01:11:31;23.00;99.90
5176;DHT22;2607;50.934;6.934;2023-06-19T01:14:01;23.00;99.80
5176;DHT22;2607;50.934;6.934;2023-06-19T01:16:29;23.00;99.80
5176;DHT22;2607;50.934;6.934;2023-06-19T01:18:55;23.00;99.80
5176;DHT22;2607;50.934;6.934;2023-06-19T01:21:21;23.00;99.70
5176;DHT22;2607;50.934;6.934;2023-06-19T01:23:47;23.00;99.90
5176;DHT22;2607;50.934;6.934;2023-06-19T01:26:13;22.90;99.70
5176;DHT22;2607;50.934;6.934;2023-06-19T01:28:43;22.90;99.70
5176;DHT22;2607;50.934;6.934;2023-06-19T01:33:46;22.90;99.90
5176;DHT22;2607;50.934;6.934;2023-06-19T01:36:13;22.90;99.90
5176;DHT22;2607;50.934;6.934;2023-06-19T01:38:40;22.80;99.90
5176;DHT22;2607;50.934;6.934;2023-06-19T01:41:08;22.80;99.90
5176;DHT22;2607;50.934;6.934;2023-06-19T01:43:35;22.70;99.90
5176;DHT22;2607;50.934;6.934;2023-06-19T01:46:01;22.80;99.90
5176;DHT22;2607;50.934;6.934;2023-06-19T01:48:27;22.70;99.90
5176;DHT22;2607;50.934;6.934;2023-06-19T01:50:52;22.80;99.90
5176;DHT22;2607;50.934;6.934;2023-06-19T01:53:18;22.70;99.90
5176;DHT22;2607;50.934;6.934;2023-06-19T01:55:44;22.70;99.90
5176;DHT22;2607;50.934;6.934;2023-06-19T01:58:09;22.70;99.90
5176;DHT22;2607;50.934;6.934;2023-06-19T02:00:35;22.70;99.90
5176;DHT22;2607;50.934;6.934;2023-06-19T02:03:01;22.70;99.90
5176;DHT22;2607;50.934;6.934;2023-06-19T02:05:27;22.70;99.90
5176;DHT22;2607;50.934;6.934;2023-06-19T02:07:52;22.70;99.90
5176;DHT22;2607;50.934;6.934;2023-06-19T02:10:18;22.70;99.90
5176;DHT22;2607;50.934;6.934;2023-06-19T02:12:43;22.70;99.90
5176;DHT22;2607;50.934;6.934;2023-06-19T02:15:09;22.70;99.90
5176;DHT22;2607;50.934;6.934;2023-06-19T02:17:35;22.70;99.90
5176;DHT22;2607;50.934;6.934;2023-06-19T02:20:01;22.70;99.90
5176;DHT22;2607;50.934;6.934;2023-06-19T02:22:26;22.70;99.90
5176;DHT22;2607;50.934;6.934;2023-06-19T02:24:52;22.80;99.90
5176;DHT22;2607;50.934;6.934;2023-06-19T02:27:17;22.70;99.90
5176;DHT22;2607;50.934;6.934;2023-06-19T02:29:43;22.70;99.90
5176;DHT22;2607;50.934;6.934;2023-06-19T02:32:08;22.80;99.90
5176;DHT22;2607;50.934;6.934;2023-06-19T02:34:34;22.80;99.90
5176;DHT22;2607;50.934;6.934;2023-06-19T02:37:00;22.80;99.90
5176;DHT22;2607;50.934;6.934;2023-06-19T02:39:26;22.80;99.90
5176;DHT22;2607;50.934;6.934;2023-06-19T02:41:52;22.80;99.90
5176;DHT22;2607;50.934;6.934;2023-06-19T02:44:17;22.80;99.90
5176;DHT22;2607;50.934;6.934;2023-06-19T02:46:43;22.80;99.90
5176;DHT22;2607;50.934;6.934;2023-06-19T02:49:08;22.80;99.90
5176;DHT22;2607;50.934;6.934;2023-06-19T02:51:34;22.90;99.90
5176;DHT22;2607;50.934;6.934;2023-06-19T02:53:59;22.90;99.90
5176;DHT22;2607;50.934;6.934;2023-06-19T02:56:26;22.80;99.90
5176;DHT22;2607;50.934;6.934;2023-06-19T02:58:53;22.90;99.90
5176;DHT22;2607;50.934;6.934;2023-06-19T03:01:18;22.80;99.90
5176;DHT22;2607;50.934;6.934;2023-06-19T03:03:44;22.90;99.90
5176;DHT22;2607;50.934;6.934;2023-06-19T03:06:11;22.90;99.90
5176;DHT22;2607;50.934;6.934;2023-06-19T03:08:38;22.80;99.90
5176;DHT22;2607;50.934;6.934;2023-06-19T03:11:04;22.80;99.90
5176;DHT22;2607;50.934;6.934;2023-06-19T03:13:49;22.80;99.90
5176;DHT22;2607;50.934;6.934;2023-06-19T03:16:15;22.80;99.90
5176;DHT22;2607;50.934;6.934;2023-06-19T03:18:41;22.80;99.90
5176;DHT22;2607;50.934;6.934;2023-06-19T03:21:07;22.70;99.90
5176;DHT22;2607;50.934;6.934;2023-06-19T03:23:33;22.70;99.90
5176;DHT22;2607;50.934;6.934;2023-06-19T03:25:58;22.70;99.90
5176;DHT22;2607;50.934;6.934;2023-06-19T03:28:24;22.60;99.90
5176;DHT22;2607;50.934;6.934;2023-06-19T03:30:50;22.60;99.90
5176;DHT22;2607;50.934;6.934;2023-06-19T03:33:16;22.60;99.90
5176;DHT22;2607;50.934;6.934;2023-06-19T03:35:41;22.60;99.90
5176;DHT22;2607;50.934;6.934;2023-06-19T03:38:07;22.50;99.90
5176;DHT22;2607;50.934;6.934;2023-06-19T03:40:32;22.50;99.90
5176;DHT22;2607;50.934;6.934;2023-06-19T03:42:58;22.50;99.90
5176;DHT22;2607;50.934;6.934;2023-06-19T03:45:23;22.50;99.90
5176;DHT22;2607;50.934;6.934;2023-06-19T03:47:49;22.50;99.90
5176;DHT22;2607;50.934;6.934;2023-06-19T03:50:15;22.40;99.90
5176;DHT22;2607;50.934;6.934;2023-06-19T03:52:40;22.40;99.90
5176;DHT22;2607;50.934;6.934;2023-06-19T03:55:06;22.40;99.90
5176;DHT22;2607;50.934;6.934;2023-06-19T03:57:31;22.40;99.90
5176;DHT22;2607;50.934;6.934;2023-06-19T03:59:57;22.30;99.90
5176;DHT22;2607;50.934;6.934;2023-06-19T04:02:23;22.30;99.90
5176;DHT22;2607;50.934;6.934;2023-06-19T04:04:48;22.30;99.90
5176;DHT22;2607;50.934;6.934;2023-06-19T04:07:14;22.20;99.90
5176;DHT22;2607;50.934;6.934;2023-06-19T04:09:39;22.10;99.90
5176;DHT22;2607;50.934;6.934;2023-06-19T04:12:05;22.10;99.90
5176;DHT22;2607;50.934;6.934;2023-06-19T04:14:31;22.00;99.90
5176;DHT22;2607;50.934;6.934;2023-06-19T04:16:56;22.00;99.90
5176;DHT22;2607;50.934;6.934;2023-06-19T04:19:22;22.00;99.90
5176;DHT22;2607;50.934;6.934;2023-06-19T04:21:47;21.90;99.90
5176;DHT22;2607;50.934;6.934;2023-06-19T04:24:13;21.90;99.90
5176;DHT22;2607;50.934;6.934;2023-06-19T04:26:38;21.90;99.90
5176;DHT22;2607;50.934;6.934;2023-06-19T04:29:04;21.90;99.90
5176;DHT22;2607;50.934;6.934;2023-06-19T04:31:31;21.80;99.90
5176;DHT22;2607;50.934;6.934;2023-06-19T04:33:57;21.90;99.90
5176;DHT22;2607;50.934;6.934;2023-06-19T04:36:23;21.90;99.90
5176;DHT22;2607;50.934;6.934;2023-06-19T04:38:49;21.90;99.90
5176;DHT22;2607;50.934;6.934;2023-06-19T04:41:17;21.90;99.90
5176;DHT22;2607;50.934;6.934;2023-06-19T04:43:43;21.90;99.90
5176;DHT22;2607;50.934;6.934;2023-06-19T04:46:08;21.90;99.90
5176;DHT22;2607;50.934;6.934;2023-06-19T04:48:34;22.00;99.90
5176;DHT22;2607;50.934;6.934;2023-06-19T04:51:02;22.00;99.90
5176;DHT22;2607;50.934;6.934;2023-06-19T04:53:28;21.90;99.90
5176;DHT22;2607;50.934;6.934;2023-06-19T04:55:54;21.90;99.90
5176;DHT22;2607;50.934;6.934;2023-06-19T04:58:21;21.90;99.90
5176;DHT22;2607;50.934;6.934;2023-06-19T05:00:47;21.90;99.90
5176;DHT22;2607;50.934;6.934;2023-06-19T05:03:17;21.90;99.90
5176;DHT22;2607;50.934;6.934;2023-06-19T05:05:43;21.90;99.90
5176;DHT22;2607;50.934;6.934;2023-06-19T05:08:09;21.90;99.90
5176;DHT22;2607;50.934;6.934;2023-06-19T05:10:35;21.90;99.90
5176;DHT22;2607;50.934;6.934;2023-06-19T05:13:00;22.00;99.90
5176;DHT22;2607;50.934;6.934;2023-06-19T05:15:27;22.00;99.90
5176;DHT22;2607;50.934;6.934;2023-06-19T05:17:53;22.00;99.90
5176;DHT22;2607;50.934;6.934;2023-06-19T05:20:19;22.00;99.90
5176;DHT22;2607;50.934;6.934;2023-06-19T05:22:44;22.00;99.90
5176;DHT22;2607;50.934;6.934;2023-06-19T05:25:10;22.10;99.90
5176;DHT22;2607;50.934;6.934;2023-06-19T05:27:36;22.10;99.90
5176;DHT22;2607;50.934;6.934;2023-06-19T05:30:02;22.10;99.90
5176;DHT22;2607;50.934;6.934;2023-06-19T05:32:29;22.10;99.90
5176;DHT22;2607;50.934;6.934;2023-06-19T05:34:55;22.00;99.90
5176;DHT22;2607;50.934;6.934;2023-06-19T05:37:20;22.10;99.90
5176;DHT22;2607;50.934;6.934;2023-06-19T05:39:47;22.10;99.90
5176;DHT22;2607;50.934;6.934;2023-06-19T05:42:15;22.00;99.90
5176;DHT22;2607;50.934;6.934;2023-06-19T05:44:41;22.00;99.90
5176;DHT22;2607;50.934;6.934;2023-06-19T05:47:06;21.90;99.90
5176;DHT22;2607;50.934;6.934;2023-06-19T05:49:32;21.90;99.90
5176;DHT22;2607;50.934;6.934;2023-06-19T05:51:58;21.90;99.90
5176;DHT22;2607;50.934;6.934;2023-06-19T05:54:25;21.90;99.90
5176;DHT22;2607;50.934;6.934;2023-06-19T05:56:51;21.90;99.90
5176;DHT22;2607;50.934;6.934;2023-06-19T05:59:19;21.90;99.90
5176;DHT22;2607;50.934;6.934;2023-06-19T06:01:44;21.90;99.90
5176;DHT22;2607;50.934;6.934;2023-06-19T06:04:10;21.90;99.90
5176;DHT22;2607;50.934;6.934;2023-06-19T06:06:35;21.90;99.90
5176;DHT22;2607;50.934;6.934;2023-06-19T06:09:01;21.90;99.90
5176;DHT22;2607;50.934;6.934;2023-06-19T06:11:26;22.00;99.90
5176;DHT22;2607;50.934;6.934;2023-06-19T06:13:52;22.00;99.90
5176;DHT22;2607;50.934;6.934;2023-06-19T06:16:17;22.10;99.90
5176;DHT22;2607;50.934;6.934;2023-06-19T06:18:44;22.10;99.90
5176;DHT22;2607;50.934;6.934;2023-06-19T06:21:10;22.20;99.90
5176;DHT22;2607;50.934;6.934;2023-06-19T06:23:38;22.20;99.90
5176;DHT22;2607;50.934;6.934;2023-06-19T06:26:03;22.20;99.90
5176;DHT22;2607;50.934;6.934;2023-06-19T06:28:30;22.30;99.90
5176;DHT22;2607;50.934;6.934;2023-06-19T06:30:56;22.30;99.90
5176;DHT22;2607;50.934;6.934;2023-06-19T06:33:25;22.50;99.90
5176;DHT22;2607;50.934;6.934;2023-06-19T06:35:51;22.60;99.90
5176;DHT22;2607;50.934;6.934;2023-06-19T06:38:17;22.70;99.90
5176;DHT22;2607;50.934;6.934;2023-06-19T06:40:42;22.80;99.90
5176;DHT22;2607;50.934;6.934;2023-06-19T06:43:08;22.90;99.90
5176;DHT22;2607;50.934;6.934;2023-06-19T06:45:34;23.00;99.90
5176;DHT22;2607;50.934;6.934;2023-06-19T06:48:00;23.00;99.90
5176;DHT22;2607;50.934;6.934;2023-06-19T06:50:25;23.10;99.90
5176;DHT22;2607;50.934;6.934;2023-06-19T06:52:51;23.20;99.90
5176;DHT22;2607;50.934;6.934;2023-06-19T06:55:16;23.20;99.80
5176;DHT22;2607;50.934;6.934;2023-06-19T06:57:42;23.20;99.60
5176;DHT22;2607;50.934;6.934;2023-06-19T07:00:08;23.20;98.70
5176;DHT22;2607;50.934;6.934;2023-06-19T07:02:39;23.20;98.40
5176;DHT22;2607;50.934;6.934;2023-06-19T07:05:07;23.30;98.40
5176;DHT22;2607;50.934;6.934;2023-06-19T07:07:32;23.30;98.20
5176;DHT22;2607;50.934;6.934;2023-06-19T07:09:58;23.40;98.00
5176;DHT22;2607;50.934;6.934;2023-06-19T07:12:23;23.50;97.40
5176;DHT22;2607;50.934;6.934;2023-06-19T07:14:49;23.50;96.90
5176;DHT22;2607;50.934;6.934;2023-06-19T07:17:18;23.50;97.00
5176;DHT22;2607;50.934;6.934;2023-06-19T07:19:43;23.60;96.60
5176;DHT22;2607;50.934;6.934;2023-06-19T07:22:09;23.60;96.30
5176;DHT22;2607;50.934;6.934;2023-06-19T07:24:34;23.70;95.70
5176;DHT22;2607;50.934;6.934;2023-06-19T07:27:00;23.70;95.40
5176;DHT22;2607;50.934;6.934;2023-06-19T07:29:26;23.80;94.90
5176;DHT22;2607;50.934;6.934;2023-06-19T07:31:52;23.90;94.70
5176;DHT22;2607;50.934;6.934;2023-06-19T07:34:17;24.00;94.40
5176;DHT22;2607;50.934;6.934;2023-06-19T07:36:43;24.10;94.40
5176;DHT22;2607;50.934;6.934;2023-06-19T07:39:09;24.10;93.80
5176;DHT22;2607;50.934;6.934;2023-06-19T07:41:35;24.20;93.80
5176;DHT22;2607;50.934;6.934;2023-06-19T07:44:01;24.30;93.90
5176;DHT22;2607;50.934;6.934;2023-06-19T07:46:27;24.20;94.00
5176;DHT22;2607;50.934;6.934;2023-06-19T07:48:52;24.20;94.10
5176;DHT22;2607;50.934;6.934;2023-06-19T07:51:18;24.20;94.00
5176;DHT22;2607;50.934;6.934;2023-06-19T07:53:43;24.20;94.30
5176;DHT22;2607;50.934;6.934;2023-06-19T07:56:09;24.20;94.70
5176;DHT22;2607;50.934;6.934;2023-06-19T07:58:35;24.30;94.40
5176;DHT22;2607;50.934;6.934;2023-06-19T08:01:00;24.40;94.50
5176;DHT22;2607;50.934;6.934;2023-06-19T08:03:26;24.40;93.90
5176;DHT22;2607;50.934;6.934;2023-06-19T08:05:52;24.40;93.90
5176;DHT22;2607;50.934;6.934;2023-06-19T08:08:18;24.50;93.90
5176;DHT22;2607;50.934;6.934;2023-06-19T08:10:43;24.50;94.00
5176;DHT22;2607;50.934;6.934;2023-06-19T08:13:09;24.60;94.10
5176;DHT22;2607;50.934;6.934;2023-06-19T08:15:37;24.60;94.10
5176;DHT22;2607;50.934;6.934;2023-06-19T08:18:02;24.60;94.00
5176;DHT22;2607;50.934;6.934;2023-06-19T08:20:28;24.60;94.30
5176;DHT22;2607;50.934;6.934;2023-06-19T08:22:54;24.60;94.40
5176;DHT22;2607;50.934;6.934;2023-06-19T08:25:19;24.60;94.40
5176;DHT22;2607;50.934;6.934;2023-06-19T08:27:45;24.70;94.30
5176;DHT22;2607;50.934;6.934;2023-06-19T08:30:11;24.60;94.50
5176;DHT22;2607;50.934;6.934;2023-06-19T08:32:37;24.60;94.30
5176;DHT22;2607;50.934;6.934;2023-06-19T08:35:02;24.60;94.40
5176;DHT22;2607;50.934;6.934;2023-06-19T08:37:28;24.60;94.50
5176;DHT22;2607;50.934;6.934;2023-06-19T08:39:54;24.60;94.40
5176;DHT22;2607;50.934;6.934;2023-06-19T08:42:21;24.60;94.40
5176;DHT22;2607;50.934;6.934;2023-06-19T08:44:48;24.60;94.40
5176;DHT22;2607;50.934;6.934;2023-06-19T08:47:14;24.50;94.10
5176;DHT22;2607;50.934;6.934;2023-06-19T08:49:40;24.50;94.20
5176;DHT22;2607;50.934;6.934;2023-06-19T08:52:06;24.50;93.80
5176;DHT22;2607;50.934;6.934;2023-06-19T08:54:32;24.50;93.60
5176;DHT22;2607;50.934;6.934;2023-06-19T08:57:02;24.50;93.40
5176;DHT22;2607;50.934;6.934;2023-06-19T08:59:28;24.40;93.20
5176;DHT22;2607;50.934;6.934;2023-06-19T09:01:57;24.50;93.40
5176;DHT22;2607;50.934;6.934;2023-06-19T09:04:25;24.50;93.20
5176;DHT22;2607;50.934;6.934;2023-06-19T09:07:01;24.50;93.20
5176;DHT22;2607;50.934;6.934;2023-06-19T09:09:30;24.60;92.90
5176;DHT22;2607;50.934;6.934;2023-06-19T09:12:01;24.60;93.00
5176;DHT22;2607;50.934;6.934;2023-06-19T09:14:35;24.70;92.60
5176;DHT22;2607;50.934;6.934;2023-06-19T09:17:05;24.80;92.40
5176;DHT22;2607;50.934;6.934;2023-06-19T09:19:32;24.90;92.40
5176;DHT22;2607;50.934;6.934;2023-06-19T09:22:07;24.90;92.20
5176;DHT22;2607;50.934;6.934;2023-06-19T09:24:38;25.00;92.10
5176;DHT22;2607;50.934;6.934;2023-06-19T09:29:36;25.10;91.60
5176;DHT22;2607;50.934;6.934;2023-06-19T09:32:14;25.20;91.30
5176;DHT22;2607;50.934;6.934;2023-06-19T09:34:40;25.20;91.20
5176;DHT22;2607;50.934;6.934;2023-06-19T09:37:06;25.30;91.10
5176;DHT22;2607;50.934;6.934;2023-06-19T09:39:34;25.50;90.90
5176;DHT22;2607;50.934;6.934;2023-06-19T09:42:01;25.60;90.60
5176;DHT22;2607;50.934;6.934;2023-06-19T09:44:31;25.80;90.10
5176;DHT22;2607;50.934;6.934;2023-06-19T09:46:58;25.90;89.30
5176;DHT22;2607;50.934;6.934;2023-06-19T09:49:28;25.90;89.40
5176;DHT22;2607;50.934;6.934;2023-06-19T09:51:57;26.00;89.00
5176;DHT22;2607;50.934;6.934;2023-06-19T09:54:24;26.00;88.90
5176;DHT22;2607;50.934;6.934;2023-06-19T09:56:52;26.00;88.20
5176;DHT22;2607;50.934;6.934;2023-06-19T09:59:21;26.10;88.70
5176;DHT22;2607;50.934;6.934;2023-06-19T10:01:48;26.10;88.50
5176;DHT22;2607;50.934;6.934;2023-06-19T10:04:14;26.20;87.20
5176;DHT22;2607;50.934;6.934;2023-06-19T10:06:46;26.30;87.10
5176;DHT22;2607;50.934;6.934;2023-06-19T10:09:14;26.20;86.80
5176;DHT22;2607;50.934;6.934;2023-06-19T10:11:50;26.20;86.60
5176;DHT22;2607;50.934;6.934;2023-06-19T10:14:20;26.30;86.20
5176;DHT22;2607;50.934;6.934;2023-06-19T10:16:46;26.30;85.90
5176;DHT22;2607;50.934;6.934;2023-06-19T10:19:16;26.40;85.60
5176;DHT22;2607;50.934;6.934;2023-06-19T10:21:47;26.40;85.60
5176;DHT22;2607;50.934;6.934;2023-06-19T10:24:18;26.50;85.00
5176;DHT22;2607;50.934;6.934;2023-06-19T10:26:59;26.60;83.00
5176;DHT22;2607;50.934;6.934;2023-06-19T10:29:25;26.60;82.90
5176;DHT22;2607;50.934;6.934;2023-06-19T10:31:52;26.60;82.60
5176;DHT22;2607;50.934;6.934;2023-06-19T10:34:17;26.60;82.40
5176;DHT22;2607;50.934;6.934;2023-06-19T10:36:43;26.70;82.70
5176;DHT22;2607;50.934;6.934;2023-06-19T10:39:09;26.80;81.60
5176;DHT22;2607;50.934;6.934;2023-06-19T10:41:35;26.80;80.70
5176;DHT22;2607;50.934;6.934;2023-06-19T10:44:07;26.80;80.90
5176;DHT22;2607;50.934;6.934;2023-06-19T10:46:38;26.80;80.70
5176;DHT22;2607;50.934;6.934;2023-06-19T10:49:05;26.90;80.70
5176;DHT22;2607;50.934;6.934;2023-06-19T10:51:34;26.90;81.00
5176;DHT22;2607;50.934;6.934;2023-06-19T10:54:00;27.00;80.50
5176;DHT22;2607;50.934;6.934;2023-06-19T10:56:26;27.00;80.50
5176;DHT22;2607;50.934;6.934;2023-06-19T10:59:01;27.10;80.80
5176;DHT22;2607;50.934;6.934;2023-06-19T11:01:33;27.30;80.80
5176;DHT22;2607;50.934;6.934;2023-06-19T11:04:01;27.40;80.10
5176;DHT22;2607;50.934;6.934;2023-06-19T11:06:28;27.60;78.50
5176;DHT22;2607;50.934;6.934;2023-06-19T11:08:54;27.70;77.40
5176;DHT22;2607;50.934;6.934;2023-06-19T11:11:21;27.70;77.00
5176;DHT22;2607;50.934;6.934;2023-06-19T11:13:47;27.80;76.50
5176;DHT22;2607;50.934;6.934;2023-06-19T11:16:14;27.70;76.30
5176;DHT22;2607;50.934;6.934;2023-06-19T11:18:40;27.80;76.50
5176;DHT22;2607;50.934;6.934;2023-06-19T11:21:05;27.80;75.80
5176;DHT22;2607;50.934;6.934;2023-06-19T11:23:31;27.90;75.80
5176;DHT22;2607;50.934;6.934;2023-06-19T11:26:03;28.00;73.20
5176;DHT22;2607;50.934;6.934;2023-06-19T11:28:29;28.00;72.10
5176;DHT22;2607;50.934;6.934;2023-06-19T11:31:00;28.00;72.30
5176;DHT22;2607;50.934;6.934;2023-06-19T11:33:26;28.00;72.10
5176;DHT22;2607;50.934;6.934;2023-06-19T11:35:54;28.00;72.30
5176;DHT22;2607;50.934;6.934;2023-06-19T11:38:21;28.00;71.80
5176;DHT22;2607;50.934;6.934;2023-06-19T11:40:47;28.10;71.50
5176;DHT22;2607;50.934;6.934;2023-06-19T11:43:26;28.10;70.00
5176;DHT22;2607;50.934;6.934;2023-06-19T11:45:53;28.20;66.50
5176;DHT22;2607;50.934;6.934;2023-06-19T11:48:26;28.20;65.90
5176;DHT22;2607;50.934;6.934;2023-06-19T11:50:52;28.20;67.70
5176;DHT22;2607;50.934;6.934;2023-06-19T11:53:19;28.30;69.00
5176;DHT22;2607;50.934;6.934;2023-06-19T11:55:45;28.40;70.00
5176;DHT22;2607;50.934;6.934;2023-06-19T11:58:10;28.50;69.90
5176;DHT22;2607;50.934;6.934;2023-06-19T12:00:36;28.60;69.60
5176;DHT22;2607;50.934;6.934;2023-06-19T12:03:03;28.80;67.40
5176;DHT22;2607;50.934;6.934;2023-06-19T12:05:29;28.80;66.40
5176;DHT22;2607;50.934;6.934;2023-06-19T12:07:54;28.90;65.30
5176;DHT22;2607;50.934;6.934;2023-06-19T12:10:20;28.90;66.50
5176;DHT22;2607;50.934;6.934;2023-06-19T12:12:45;29.00;66.50
5176;DHT22;2607;50.934;6.934;2023-06-19T12:15:11;29.10;67.00
5176;DHT22;2607;50.934;6.934;2023-06-19T12:17:36;29.20;67.40
5176;DHT22;2607;50.934;6.934;2023-06-19T12:20:03;29.30;67.30
5176;DHT22;2607;50.934;6.934;2023-06-19T12:22:33;29.30;67.10
5176;DHT22;2607;50.934;6.934;2023-06-19T12:25:00;29.40;66.80
5176;DHT22;2607;50.934;6.934;2023-06-19T12:27:25;29.40;66.60
5176;DHT22;2607;50.934;6.934;2023-06-19T12:29:51;29.40;65.50
5176;DHT22;2607;50.934;6.934;2023-06-19T12:32:16;29.40;65.40
5176;DHT22;2607;50.934;6.934;2023-06-19T12:34:42;29.50;64.60
5176;DHT22;2607;50.934;6.934;2023-06-19T12:37:15;29.40;65.30
5176;DHT22;2607;50.934;6.934;2023-06-19T12:39:43;29.40;65.50
5176;DHT22;2607;50.934;6.934;2023-06-19T12:42:09;29.40;65.00
5176;DHT22;2607;50.934;6.934;2023-06-19T12:44:37;29.40;65.00
5176;DHT22;2607;50.934;6.934;2023-06-19T12:47:03;29.50;64.80
5176;DHT22;2607;50.934;6.934;2023-06-19T12:49:30;29.60;63.80
5176;DHT22;2607;50.934;6.934;2023-06-19T12:51:55;29.60;63.10
5176;DHT22;2607;50.934;6.934;2023-06-19T12:54:21;29.60;63.50
5176;DHT22;2607;50.934;6.934;2023-06-19T12:56:47;29.60;63.30
5176;DHT22;2607;50.934;6.934;2023-06-19T12:59:13;29.70;63.00
5176;DHT22;2607;50.934;6.934;2023-06-19T13:01:38;29.80;62.80
5176;DHT22;2607;50.934;6.934;2023-06-19T13:04:04;29.80;62.50
5176;DHT22;2607;50.934;6.934;2023-06-19T13:06:29;29.90;61.90
5176;DHT22;2607;50.934;6.934;2023-06-19T13:08:55;29.90;61.30
5176;DHT22;2607;50.934;6.934;2023-06-19T13:11:20;29.90;61.70
5176;DHT22;2607;50.934;6.934;2023-06-19T13:13:46;29.90;61.80
5176;DHT22;2607;50.934;6.934;2023-06-19T13:16:11;29.90;62.10
5176;DHT22;2607;50.934;6.934;2023-06-19T13:18:37;30.00;62.30
5176;DHT22;2607;50.934;6.934;2023-06-19T13:21:02;30.00;61.60
5176;DHT22;2607;50.934;6.934;2023-06-19T13:23:28;30.00;61.90
5176;DHT22;2607;50.934;6.934;2023-06-19T13:25:56;30.10;60.80
5176;DHT22;2607;50.934;6.934;2023-06-19T13:28:22;30.10;61.10
5176;DHT22;2607;50.934;6.934;2023-06-19T13:30:47;30.00;61.10
5176;DHT22;2607;50.934;6.934;2023-06-19T13:33:13;29.80;61.10
5176;DHT22;2607;50.934;6.934;2023-06-19T13:35:38;29.80;61.40
5176;DHT22;2607;50.934;6.934;2023-06-19T13:38:04;29.80;61.60
5176;DHT22;2607;50.934;6.934;2023-06-19T13:40:29;29.90;62.10
5176;DHT22;2607;50.934;6.934;2023-06-19T13:42:55;29.90;61.40
5176;DHT22;2607;50.934;6.934;2023-06-19T13:45:21;30.00;61.10
5176;DHT22;2607;50.934;6.934;2023-06-19T13:47:47;30.00;61.10
5176;DHT22;2607;50.934;6.934;2023-06-19T13:50:12;30.00;60.90
5176;DHT22;2607;50.934;6.934;2023-06-19T13:52:44;30.00;61.00
5176;DHT22;2607;50.934;6.934;2023-06-19T13:55:10;29.90;60.60
5176;DHT22;2607;50.934;6.934;2023-06-19T13:57:35;29.90;60.60
5176;DHT22;2607;50.934;6.934;2023-06-19T14:00:03;29.90;60.50
5176;DHT22;2607;50.934;6.934;2023-06-19T14:02:28;29.90;60.50
5176;DHT22;2607;50.934;6.934;2023-06-19T14:04:54;29.80;60.60
5176;DHT22;2607;50.934;6.934;2023-06-19T14:07:19;29.80;60.70
5176;DHT22;2607;50.934;6.934;2023-06-19T14:09:48;29.80;60.50
5176;DHT22;2607;50.934;6.934;2023-06-19T14:12:14;29.80;60.60
5176;DHT22;2607;50.934;6.934;2023-06-19T14:14:39;29.80;60.80
5176;DHT22;2607;50.934;6.934;2023-06-19T14:17:05;29.80;60.70
5176;DHT22;2607;50.934;6.934;2023-06-19T14:19:31;29.80;60.70
5176;DHT22;2607;50.934;6.934;2023-06-19T14:21:56;29.80;61.00
5176;DHT22;2607;50.934;6.934;2023-06-19T14:24:22;29.80;60.70
5176;DHT22;2607;50.934;6.934;2023-06-19T14:26:49;29.90;60.10
5176;DHT22;2607;50.934;6.934;2023-06-19T14:29:15;29.90;59.70
5176;DHT22;2607;50.934;6.934;2023-06-19T14:31:43;29.80;59.90
5176;DHT22;2607;50.934;6.934;2023-06-19T14:34:09;29.80;59.70
5176;DHT22;2607;50.934;6.934;2023-06-19T14:36:36;29.80;60.00
5176;DHT22;2607;50.934;6.934;2023-06-19T14:39:02;29.70;60.10
5176;DHT22;2607;50.934;6.934;2023-06-19T14:41:27;29.70;60.50
5176;DHT22;2607;50.934;6.934;2023-06-19T14:43:53;29.60;60.60
5176;DHT22;2607;50.934;6.934;2023-06-19T14:46:18;29.60;60.80
5176;DHT22;2607;50.934;6.934;2023-06-19T14:48:45;29.60;60.60
5176;DHT22;2607;50.934;6.934;2023-06-19T14:51:10;29.60;60.60
5176;DHT22;2607;50.934;6.934;2023-06-19T14:53:37;29.60;60.60
5176;DHT22;2607;50.934;6.934;2023-06-19T14:56:03;29.50;60.70
5176;DHT22;2607;50.934;6.934;2023-06-19T14:58:28;29.50;61.10
5176;DHT22;2607;50.934;6.934;2023-06-19T15:00:54;29.50;61.00
5176;DHT22;2607;50.934;6.934;2023-06-19T15:03:20;29.40;60.80
5176;DHT22;2607;50.934;6.934;2023-06-19T15:05:45;29.40;61.30
5176;DHT22;2607;50.934;6.934;2023-06-19T15:08:11;29.40;61.70
5176;DHT22;2607;50.934;6.934;2023-06-19T15:10:37;29.40;61.80
5176;DHT22;2607;50.934;6.934;2023-06-19T15:13:03;29.40;62.30
5176;DHT22;2607;50.934;6.934;2023-06-19T15:15:28;29.40;62.70
5176;DHT22;2607;50.934;6.934;2023-06-19T15:17:54;29.40;62.80
5176;DHT22;2607;50.934;6.934;2023-06-19T15:20:19;29.40;63.00
5176;DHT22;2607;50.934;6.934;2023-06-19T15:22:46;29.40;63.00
5176;DHT22;2607;50.934;6.934;2023-06-19T15:25:12;29.40;63.20
5176;DHT22;2607;50.934;6.934;2023-06-19T15:27:37;29.40;62.80
5176;DHT22;2607;50.934;6.934;2023-06-19T15:30:03;29.40;62.00
5176;DHT22;2607;50.934;6.934;2023-06-19T15:32:29;29.40;61.70
5176;DHT22;2607;50.934;6.934;2023-06-19T15:34:55;29.40;61.70
5176;DHT22;2607;50.934;6.934;2023-06-19T15:37:20;29.30;61.80
5176;DHT22;2607;50.934;6.934;2023-06-19T15:39:46;29.30;61.70
5176;DHT22;2607;50.934;6.934;2023-06-19T15:42:11;29.30;61.30
5176;DHT22;2607;50.934;6.934;2023-06-19T15:44:37;29.30;61.50
5176;DHT22;2607;50.934;6.934;2023-06-19T15:47:03;29.30;62.40
5176;DHT22;2607;50.934;6.934;2023-06-19T15:49:28;29.40;62.70
5176;DHT22;2607;50.934;6.934;2023-06-19T15:51:54;29.40;62.40
5176;DHT22;2607;50.934;6.934;2023-06-19T15:54:19;29.40;62.60
5176;DHT22;2607;50.934;6.934;2023-06-19T15:56:45;29.30;62.40
5176;DHT22;2607;50.934;6.934;2023-06-19T15:59:11;29.30;62.40
5176;DHT22;2607;50.934;6.934;2023-06-19T16:01:36;29.20;62.50